sensor_id;sensor_type;location;lat;lon;timestamp;P1;durP1;ratioP1;P2;durP2;ratioP2
9836;SDS011;4957;51.412;6.724;2023-08-06T00:00:15;0.00;;;0.00;;
9836;SDS011;4957;51.412;6.724;2023-08-06T00:02:41;0.00;;;0.00;;
9836;SDS011;4957;51.412;6.724;2023-08-06T00:05:07;0.00;;;0.00;;
9836;SDS011;4957;51.412;6.724;2023-08-06T00:07:32;0.00;;;0.00;;
9836;SDS011;4957;51.412;6.724;2023-08-06T00:09:58;0.00;;;0.00;;
9836;SDS011;4957;51.412;6.724;2023-08-06T00:12:24;0.00;;;0.00;;
9836;SDS011;4957;51.412;6.724;2023-08-06T00:14:50;0.00;;;0.00;;
9836;SDS011;4957;51.412;6.724;2023-08-06T00:17:16;0.00;;;0.00;;
9836;SDS011;4957;51.412;6.724;2023-08-06T00:19:42;0.00;;;0.00;;
9836;SDS011;4957;51.412;6.724;2023-08-06T00:22:08;0.00;;;0.00;;
9836;SDS011;4957;51.412;6.724;2023-08-06T00:24:34;0.00;;;0.00;;
9836;SDS011;4957;51.412;6.724;2023-08-06T00:27:00;0.00;;;0.00;;
9836;SDS011;4957;51.412;6.724;2023-08-06T00:29:26;0.00;;;0.00;;
9836;SDS011;4957;51.412;6.724;2023-08-06T00:31:52;0.00;;;0.00;;
9836;SDS011;4957;51.412;6.724;2023-08-06T00:34:17;0.00;;;0.00;;
9836;SDS011;4957;51.412;6.724;2023-08-06T00:36:43;0.00;;;0.00;;
9836;SDS011;4957;51.412;6.724;2023-08-06T00:39:09;0.00;;;0.00;;
9836;SDS011;4957;51.412;6.724;2023-08-06T00:41:34;0.00;;;0.00;;
9836;SDS011;4957;51.412;6.724;2023-08-06T00:44:00;0.00;;;0.00;;
9836;SDS011;4957;51.412;6.724;2023-08-06T00:46:26;0.00;;;0.00;;
9836;SDS011;4957;51.412;6.724;2023-08-06T00:48:52;0.00;;;0.00;;
9836;SDS011;4957;51.412;6.724;2023-08-06T00:51:18;0.00;;;0.00;;
9836;SDS011;4957;51.412;6.724;2023-08-06T00:53:44;0.00;;;0.00;;
9836;SDS011;4957;51.412;6.724;2023-08-06T00:56:10;0.00;;;0.00;;
9836;SDS011;4957;51.412;6.724;2023-08-06T00:58:37;0.00;;;0.00;;
9836;SDS011;4957;51.412;6.724;2023-08-06T01:01:03;0.00;;;0.00;;
9836;SDS011;4957;51.412;6.724;2023-08-06T01:03:29;0.00;;;0.00;;
9836;SDS011;4957;51.412;6.724;2023-08-06T01:05:54;0.00;;;0.00;;
9836;SDS011;4957;51.412;6.724;2023-08-06T01:13:50;0.00;;;0.00;;
9836;SDS011;4957;51.412;6.724;2023-08-06T01:16:22;0.00;;;0.00;;
9836;SDS011;4957;51.412;6.724;2023-08-06T01:18:50;0.00;;;0.00;;
9836;SDS011;4957;51.412;6.724;2023-08-06T01:21:16;0.10;;;0.10;;
9836;SDS011;4957;51.412;6.724;2023-08-06T01:23:42;0.00;;;0.00;;
9836;SDS011;4957;51.412;6.724;2023-08-06T01:31:37;0.00;;;0.00;;
9836;SDS011;4957;51.412;6.724;2023-08-06T01:34:05;0.00;;;0.00;;
9836;SDS011;4957;51.412;6.724;2023-08-06T01:36:46;0.00;;;0.00;;
9836;SDS011;4957;51.412;6.724;2023-08-06T01:39:12;0.00;;;0.00;;
9836;SDS011;4957;51.412;6.724;2023-08-06T01:41:38;0.00;;;0.00;;
9836;SDS011;4957;51.412;6.724;2023-08-06T01:44:04;0.00;;;0.00;;
9836;SDS011;4957;51.412;6.724;2023-08-06T01:46:29;0.00;;;0.00;;
9836;SDS011;4957;51.412;6.724;2023-08-06T01:48:55;0.27;;;0.20;;
9836;SDS011;4957;51.412;6.724;2023-08-06T01:51:21;0.07;;;0.07;;
9836;SDS011;4957;51.412;6.724;2023-08-06T01:53:46;0.00;;;0.00;;
9836;SDS011;4957;51.412;6.724;2023-08-06T01:56:12;0.00;;;0.00;;
9836;SDS011;4957;51.412;6.724;2023-08-06T01:58:37;0.00;;;0.00;;
9836;SDS011;4957;51.412;6.724;2023-08-06T02:01:03;0.00;;;0.00;;
9836;SDS011;4957;51.412;6.724;2023-08-06T02:03:29;0.00;;;0.00;;
9836;SDS011;4957;51.412;6.724;2023-08-06T02:05:54;0.00;;;0.00;;
9836;SDS011;4957;51.412;6.724;2023-08-06T02:08:20;0.00;;;0.00;;
9836;SDS011;4957;51.412;6.724;2023-08-06T02:10:46;0.00;;;0.00;;
9836;SDS011;4957;51.412;6.724;2023-08-06T02:13:12;0.00;;;0.00;;
9836;SDS011;4957;51.412;6.724;2023-08-06T02:15:47;0.00;;;0.00;;
9836;SDS011;4957;51.412;6.724;2023-08-06T02:18:13;0.00;;;0.00;;
9836;SDS011;4957;51.412;6.724;2023-08-06T02:20:39;0.00;;;0.00;;
9836;SDS011;4957;51.412;6.724;2023-08-06T02:23:05;0.00;;;0.00;;
9836;SDS011;4957;51.412;6.724;2023-08-06T02:25:33;0.00;;;0.00;;
9836;SDS011;4957;51.412;6.724;2023-08-06T02:27:58;0.00;;;0.00;;
9836;SDS011;4957;51.412;6.724;2023-08-06T02:30:24;0.00;;;0.00;;
9836;SDS011;4957;51.412;6.724;2023-08-06T02:32:50;0.00;;;0.00;;
9836;SDS011;4957;51.412;6.724;2023-08-06T02:35:15;0.00;;;0.00;;
9836;SDS011;4957;51.412;6.724;2023-08-06T02:37:41;0.00;;;0.00;;
9836;SDS011;4957;51.412;6.724;2023-08-06T02:40:07;0.00;;;0.00;;
9836;SDS011;4957;51.412;6.724;2023-08-06T02:42:33;0.00;;;0.00;;
9836;SDS011;4957;51.412;6.724;2023-08-06T02:44:59;0.00;;;0.00;;
9836;SDS011;4957;51.412;6.724;2023-08-06T02:47:24;0.00;;;0.00;;
9836;SDS011;4957;51.412;6.724;2023-08-06T02:49:50;0.00;;;0.00;;
9836;SDS011;4957;51.412;6.724;2023-08-06T02:52:16;0.00;;;0.00;;
9836;SDS011;4957;51.412;6.724;2023-08-06T02:54:42;0.00;;;0.00;;
9836;SDS011;4957;51.412;6.724;2023-08-06T02:57:08;0.00;;;0.00;;
9836;SDS011;4957;51.412;6.724;2023-08-06T02:59:33;0.00;;;0.00;;
9836;SDS011;4957;51.412;6.724;2023-08-06T03:01:59;0.00;;;0.00;;
9836;SDS011;4957;51.412;6.724;2023-08-06T03:04:25;0.00;;;0.00;;
9836;SDS011;4957;51.412;6.724;2023-08-06T03:06:50;0.00;;;0.00;;
9836;SDS011;4957;51.412;6.724;2023-08-06T03:09:16;0.10;;;0.10;;
9836;SDS011;4957;51.412;6.724;2023-08-06T03:11:42;0.00;;;0.00;;
9836;SDS011;4957;51.412;6.724;2023-08-06T03:14:08;0.00;;;0.00;;
9836;SDS011;4957;51.412;6.724;2023-08-06T03:16:34;0.00;;;0.00;;
9836;SDS011;4957;51.412;6.724;2023-08-06T03:18:59;0.00;;;0.00;;
9836;SDS011;4957;51.412;6.724;2023-08-06T03:21:25;0.00;;;0.00;;
9836;SDS011;4957;51.412;6.724;2023-08-06T03:23:51;0.00;;;0.00;;
9836;SDS011;4957;51.412;6.724;2023-08-06T03:26:16;0.00;;;0.00;;
9836;SDS011;4957;51.412;6.724;2023-08-06T03:28:42;0.00;;;0.00;;
9836;SDS011;4957;51.412;6.724;2023-08-06T03:31:08;0.00;;;0.00;;
9836;SDS011;4957;51.412;6.724;2023-08-06T03:33:34;0.00;;;0.00;;
9836;SDS011;4957;51.412;6.724;2023-08-06T03:36:00;0.00;;;0.00;;
9836;SDS011;4957;51.412;6.724;2023-08-06T03:38:25;0.00;;;0.00;;
9836;SDS011;4957;51.412;6.724;2023-08-06T03:40:51;0.00;;;0.00;;
9836;SDS011;4957;51.412;6.724;2023-08-06T03:43:17;0.00;;;0.00;;
9836;SDS011;4957;51.412;6.724;2023-08-06T03:45:43;0.20;;;0.20;;
9836;SDS011;4957;51.412;6.724;2023-08-06T03:48:08;0.00;;;0.00;;
9836;SDS011;4957;51.412;6.724;2023-08-06T03:50:34;0.00;;;0.00;;
9836;SDS011;4957;51.412;6.724;2023-08-06T03:53:00;0.00;;;0.00;;
9836;SDS011;4957;51.412;6.724;2023-08-06T03:55:26;0.00;;;0.00;;
9836;SDS011;4957;51.412;6.724;2023-08-06T03:57:52;0.00;;;0.00;;
9836;SDS011;4957;51.412;6.724;2023-08-06T04:00:18;0.00;;;0.00;;
9836;SDS011;4957;51.412;6.724;2023-08-06T04:02:44;0.00;;;0.00;;
9836;SDS011;4957;51.412;6.724;2023-08-06T04:05:09;0.00;;;0.00;;
9836;SDS011;4957;51.412;6.724;2023-08-06T04:07:35;0.00;;;0.00;;
9836;SDS011;4957;51.412;6.724;2023-08-06T04:10:02;0.00;;;0.00;;
9836;SDS011;4957;51.412;6.724;2023-08-06T04:12:29;0.00;;;0.00;;
9836;SDS011;4957;51.412;6.724;2023-08-06T04:14:56;0.00;;;0.00;;
9836;SDS011;4957;51.412;6.724;2023-08-06T04:17:23;0.00;;;0.00;;
9836;SDS011;4957;51.412;6.724;2023-08-06T04:19:52;0.00;;;0.00;;
9836;SDS011;4957;51.412;6.724;2023-08-06T04:22:19;0.00;;;0.00;;
9836;SDS011;4957;51.412;6.724;2023-08-06T04:24:46;0.00;;;0.00;;
9836;SDS011;4957;51.412;6.724;2023-08-06T04:27:12;0.00;;;0.00;;
9836;SDS011;4957;51.412;6.724;2023-08-06T04:29:39;0.00;;;0.00;;
9836;SDS011;4957;51.412;6.724;2023-08-06T04:32:05;0.00;;;0.00;;
9836;SDS011;4957;51.412;6.724;2023-08-06T04:34:33;0.00;;;0.00;;
9836;SDS011;4957;51.412;6.724;2023-08-06T04:36:59;0.00;;;0.00;;
9836;SDS011;4957;51.412;6.724;2023-08-06T04:39:25;0.00;;;0.00;;
9836;SDS011;4957;51.412;6.724;2023-08-06T04:41:50;0.00;;;0.00;;
9836;SDS011;4957;51.412;6.724;2023-08-06T04:44:16;0.00;;;0.00;;
9836;SDS011;4957;51.412;6.724;2023-08-06T04:46:42;0.00;;;0.00;;
9836;SDS011;4957;51.412;6.724;2023-08-06T04:49:07;0.00;;;0.00;;
9836;SDS011;4957;51.412;6.724;2023-08-06T04:51:33;0.00;;;0.00;;
9836;SDS011;4957;51.412;6.724;2023-08-06T04:53:58;0.00;;;0.00;;
9836;SDS011;4957;51.412;6.724;2023-08-06T04:56:24;0.00;;;0.00;;
9836;SDS011;4957;51.412;6.724;2023-08-06T04:58:50;0.00;;;0.00;;
9836;SDS011;4957;51.412;6.724;2023-08-06T05:01:17;0.00;;;0.00;;
9836;SDS011;4957;51.412;6.724;2023-08-06T05:03:43;0.00;;;0.00;;
9836;SDS011;4957;51.412;6.724;2023-08-06T05:06:09;0.00;;;0.00;;
9836;SDS011;4957;51.412;6.724;2023-08-06T05:08:35;0.00;;;0.00;;
9836;SDS011;4957;51.412;6.724;2023-08-06T05:11:11;0.00;;;0.00;;
9836;SDS011;4957;51.412;6.724;2023-08-06T05:13:37;0.00;;;0.00;;
9836;SDS011;4957;51.412;6.724;2023-08-06T05:16:03;0.00;;;0.00;;
9836;SDS011;4957;51.412;6.724;2023-08-06T05:18:29;0.00;;;0.00;;
9836;SDS011;4957;51.412;6.724;2023-08-06T05:20:55;0.00;;;0.00;;
9836;SDS011;4957;51.412;6.724;2023-08-06T05:23:21;0.00;;;0.00;;
9836;SDS011;4957;51.412;6.724;2023-08-06T05:25:46;0.00;;;0.00;;
9836;SDS011;4957;51.412;6.724;2023-08-06T05:28:12;0.00;;;0.00;;
9836;SDS011;4957;51.412;6.724;2023-08-06T05:30:41;0.00;;;0.00;;
9836;SDS011;4957;51.412;6.724;2023-08-06T05:33:07;0.00;;;0.00;;
9836;SDS011;4957;51.412;6.724;2023-08-06T05:35:33;0.00;;;0.00;;
9836;SDS011;4957;51.412;6.724;2023-08-06T05:37:59;0.00;;;0.00;;
9836;SDS011;4957;51.412;6.724;2023-08-06T05:40:24;0.00;;;0.00;;
9836;SDS011;4957;51.412;6.724;2023-08-06T05:42:51;0.00;;;0.00;;
9836;SDS011;4957;51.412;6.724;2023-08-06T05:45:18;0.00;;;0.00;;
9836;SDS011;4957;51.412;6.724;2023-08-06T05:47:44;0.10;;;0.10;;
9836;SDS011;4957;51.412;6.724;2023-08-06T05:50:09;0.00;;;0.00;;
9836;SDS011;4957;51.412;6.724;2023-08-06T05:52:35;0.00;;;0.00;;
9836;SDS011;4957;51.412;6.724;2023-08-06T05:55:01;0.00;;;0.00;;
9836;SDS011;4957;51.412;6.724;2023-08-06T05:57:27;0.00;;;0.00;;
9836;SDS011;4957;51.412;6.724;2023-08-06T05:59:52;0.00;;;0.00;;
9836;SDS011;4957;51.412;6.724;2023-08-06T06:02:18;0.00;;;0.00;;
9836;SDS011;4957;51.412;6.724;2023-08-06T06:04:43;0.00;;;0.00;;
9836;SDS011;4957;51.412;6.724;2023-08-06T06:07:09;0.00;;;0.00;;
9836;SDS011;4957;51.412;6.724;2023-08-06T06:09:35;0.00;;;0.00;;
9836;SDS011;4957;51.412;6.724;2023-08-06T06:12:00;0.00;;;0.00;;
9836;SDS011;4957;51.412;6.724;2023-08-06T06:14:26;0.00;;;0.00;;
9836;SDS011;4957;51.412;6.724;2023-08-06T06:16:52;0.00;;;0.00;;
9836;SDS011;4957;51.412;6.724;2023-08-06T06:19:18;0.00;;;0.00;;
9836;SDS011;4957;51.412;6.724;2023-08-06T06:21:43;0.00;;;0.00;;
9836;SDS011;4957;51.412;6.724;2023-08-06T06:24:09;0.00;;;0.00;;
9836;SDS011;4957;51.412;6.724;2023-08-06T06:26:35;0.00;;;0.00;;
9836;SDS011;4957;51.412;6.724;2023-08-06T06:29:00;0.00;;;0.00;;
9836;SDS011;4957;51.412;6.724;2023-08-06T06:31:26;0.00;;;0.00;;
9836;SDS011;4957;51.412;6.724;2023-08-06T06:33:52;0.00;;;0.00;;
9836;SDS011;4957;51.412;6.724;2023-08-06T06:36:19;0.00;;;0.00;;
9836;SDS011;4957;51.412;6.724;2023-08-06T06:38:45;0.00;;;0.00;;
9836;SDS011;4957;51.412;6.724;2023-08-06T06:41:11;0.00;;;0.00;;
9836;SDS011;4957;51.412;6.724;2023-08-06T06:43:36;0.00;;;0.00;;
9836;SDS011;4957;51.412;6.724;2023-08-06T06:46:05;0.00;;;0.00;;
9836;SDS011;4957;51.412;6.724;2023-08-06T06:48:31;0.00;;;0.00;;
9836;SDS011;4957;51.412;6.724;2023-08-06T06:50:57;0.00;;;0.00;;
9836;SDS011;4957;51.412;6.724;2023-08-06T06:53:23;0.00;;;0.00;;
9836;SDS011;4957;51.412;6.724;2023-08-06T06:55:55;0.00;;;0.00;;
9836;SDS011;4957;51.412;6.724;2023-08-06T06:58:21;0.00;;;0.00;;
9836;SDS011;4957;51.412;6.724;2023-08-06T07:00:47;0.00;;;0.00;;
9836;SDS011;4957;51.412;6.724;2023-08-06T07:03:14;0.00;;;0.00;;
9836;SDS011;4957;51.412;6.724;2023-08-06T07:05:40;0.00;;;0.00;;
9836;SDS011;4957;51.412;6.724;2023-08-06T07:08:05;0.00;;;0.00;;
9836;SDS011;4957;51.412;6.724;2023-08-06T07:10:31;0.00;;;0.00;;
9836;SDS011;4957;51.412;6.724;2023-08-06T07:12:57;0.00;;;0.00;;
9836;SDS011;4957;51.412;6.724;2023-08-06T07:15:22;0.00;;;0.00;;
9836;SDS011;4957;51.412;6.724;2023-08-06T07:17:48;0.00;;;0.00;;
9836;SDS011;4957;51.412;6.724;2023-08-06T07:20:14;0.00;;;0.00;;
9836;SDS011;4957;51.412;6.724;2023-08-06T07:22:39;0.00;;;0.00;;
9836;SDS011;4957;51.412;6.724;2023-08-06T07:25:05;0.00;;;0.00;;
9836;SDS011;4957;51.412;6.724;2023-08-06T07:27:31;0.00;;;0.00;;
9836;SDS011;4957;51.412;6.724;2023-08-06T07:29:57;0.00;;;0.00;;
9836;SDS011;4957;51.412;6.724;2023-08-06T07:32:23;0.00;;;0.00;;
9836;SDS011;4957;51.412;6.724;2023-08-06T07:34:49;0.00;;;0.00;;
9836;SDS011;4957;51.412;6.724;2023-08-06T07:37:15;0.00;;;0.00;;
9836;SDS011;4957;51.412;6.724;2023-08-06T07:39:40;0.00;;;0.00;;
9836;SDS011;4957;51.412;6.724;2023-08-06T07:42:07;0.00;;;0.00;;
9836;SDS011;4957;51.412;6.724;2023-08-06T07:44:33;0.00;;;0.00;;
9836;SDS011;4957;51.412;6.724;2023-08-06T07:46:59;0.00;;;0.00;;
9836;SDS011;4957;51.412;6.724;2023-08-06T07:49:24;0.00;;;0.00;;
9836;SDS011;4957;51.412;6.724;2023-08-06T07:51:50;0.00;;;0.00;;
9836;SDS011;4957;51.412;6.724;2023-08-06T07:54:16;0.00;;;0.00;;
9836;SDS011;4957;51.412;6.724;2023-08-06T07:56:42;0.00;;;0.00;;
9836;SDS011;4957;51.412;6.724;2023-08-06T07:59:08;0.00;;;0.00;;
9836;SDS011;4957;51.412;6.724;2023-08-06T08:01:34;0.00;;;0.00;;
9836;SDS011;4957;51.412;6.724;2023-08-06T08:04:00;0.00;;;0.00;;
9836;SDS011;4957;51.412;6.724;2023-08-06T08:06:25;0.00;;;0.00;;
9836;SDS011;4957;51.412;6.724;2023-08-06T08:08:51;0.00;;;0.00;;
9836;SDS011;4957;51.412;6.724;2023-08-06T08:11:17;0.00;;;0.00;;
9836;SDS011;4957;51.412;6.724;2023-08-06T08:13:43;0.00;;;0.00;;
9836;SDS011;4957;51.412;6.724;2023-08-06T08:16:09;0.00;;;0.00;;
9836;SDS011;4957;51.412;6.724;2023-08-06T08:18:35;0.00;;;0.00;;
9836;SDS011;4957;51.412;6.724;2023-08-06T08:21:00;0.00;;;0.00;;
9836;SDS011;4957;51.412;6.724;2023-08-06T08:23:26;0.00;;;0.00;;
9836;SDS011;4957;51.412;6.724;2023-08-06T08:25:51;0.00;;;0.00;;
9836;SDS011;4957;51.412;6.724;2023-08-06T08:28:19;0.10;;;0.10;;
9836;SDS011;4957;51.412;6.724;2023-08-06T08:30:44;0.00;;;0.00;;
9836;SDS011;4957;51.412;6.724;2023-08-06T08:33:10;0.00;;;0.00;;
9836;SDS011;4957;51.412;6.724;2023-08-06T08:35:36;0.00;;;0.00;;
9836;SDS011;4957;51.412;6.724;2023-08-06T08:38:02;0.00;;;0.00;;
9836;SDS011;4957;51.412;6.724;2023-08-06T08:40:32;0.00;;;0.00;;
9836;SDS011;4957;51.412;6.724;2023-08-06T08:43:01;0.00;;;0.00;;
9836;SDS011;4957;51.412;6.724;2023-08-06T08:45:28;0.00;;;0.00;;
9836;SDS011;4957;51.412;6.724;2023-08-06T08:47:54;0.00;;;0.00;;
9836;SDS011;4957;51.412;6.724;2023-08-06T08:50:21;0.00;;;0.00;;
9836;SDS011;4957;51.412;6.724;2023-08-06T08:52:47;0.00;;;0.00;;
9836;SDS011;4957;51.412;6.724;2023-08-06T08:55:15;0.00;;;0.00;;
9836;SDS011;4957;51.412;6.724;2023-08-06T08:57:41;0.00;;;0.00;;
9836;SDS011;4957;51.412;6.724;2023-08-06T09:00:08;0.00;;;0.00;;
9836;SDS011;4957;51.412;6.724;2023-08-06T09:02:34;0.00;;;0.00;;
9836;SDS011;4957;51.412;6.724;2023-08-06T09:05:02;0.00;;;0.00;;
9836;SDS011;4957;51.412;6.724;2023-08-06T09:07:32;0.00;;;0.00;;
9836;SDS011;4957;51.412;6.724;2023-08-06T09:10:01;0.00;;;0.00;;
9836;SDS011;4957;51.412;6.724;2023-08-06T09:12:31;0.00;;;0.00;;
9836;SDS011;4957;51.412;6.724;2023-08-06T09:14:57;0.00;;;0.00;;
9836;SDS011;4957;51.412;6.724;2023-08-06T09:17:23;0.00;;;0.00;;
9836;SDS011;4957;51.412;6.724;2023-08-06T09:19:49;0.00;;;0.00;;
9836;SDS011;4957;51.412;6.724;2023-08-06T09:22:14;0.00;;;0.00;;
9836;SDS011;4957;51.412;6.724;2023-08-06T09:24:41;0.00;;;0.00;;
9836;SDS011;4957;51.412;6.724;2023-08-06T09:27:13;0.00;;;0.00;;
9836;SDS011;4957;51.412;6.724;2023-08-06T09:29:42;0.00;;;0.00;;
9836;SDS011;4957;51.412;6.724;2023-08-06T09:32:08;0.00;;;0.00;;
9836;SDS011;4957;51.412;6.724;2023-08-06T09:34:34;0.00;;;0.00;;
9836;SDS011;4957;51.412;6.724;2023-08-06T09:37:00;0.00;;;0.00;;
9836;SDS011;4957;51.412;6.724;2023-08-06T09:39:26;0.00;;;0.00;;
9836;SDS011;4957;51.412;6.724;2023-08-06T09:41:57;0.00;;;0.00;;
9836;SDS011;4957;51.412;6.724;2023-08-06T09:44:25;0.00;;;0.00;;
9836;SDS011;4957;51.412;6.724;2023-08-06T09:46:56;0.00;;;0.00;;
9836;SDS011;4957;51.412;6.724;2023-08-06T09:51:57;0.00;;;0.00;;
9836;SDS011;4957;51.412;6.724;2023-08-06T09:54:24;0.00;;;0.00;;
9836;SDS011;4957;51.412;6.724;2023-08-06T09:56:52;0.00;;;0.00;;
9836;SDS011;4957;51.412;6.724;2023-08-06T09:59:19;0.00;;;0.00;;
9836;SDS011;4957;51.412;6.724;2023-08-06T10:01:45;0.00;;;0.00;;
9836;SDS011;4957;51.412;6.724;2023-08-06T10:04:12;0.00;;;0.00;;
9836;SDS011;4957;51.412;6.724;2023-08-06T10:06:41;0.00;;;0.00;;
9836;SDS011;4957;51.412;6.724;2023-08-06T10:09:08;0.00;;;0.00;;
9836;SDS011;4957;51.412;6.724;2023-08-06T10:11:34;0.00;;;0.00;;
9836;SDS011;4957;51.412;6.724;2023-08-06T10:14:06;0.00;;;0.00;;
9836;SDS011;4957;51.412;6.724;2023-08-06T10:16:34;0.00;;;0.00;;
9836;SDS011;4957;51.412;6.724;2023-08-06T10:19:01;0.00;;;0.00;;
9836;SDS011;4957;51.412;6.724;2023-08-06T10:21:30;0.00;;;0.00;;
9836;SDS011;4957;51.412;6.724;2023-08-06T10:23:57;0.00;;;0.00;;
9836;SDS011;4957;51.412;6.724;2023-08-06T10:26:29;0.00;;;0.00;;
9836;SDS011;4957;51.412;6.724;2023-08-06T10:28:55;0.00;;;0.00;;
9836;SDS011;4957;51.412;6.724;2023-08-06T10:32:07;0.00;;;0.00;;
9836;SDS011;4957;51.412;6.724;2023-08-06T10:35:12;0.00;;;0.00;;
9836;SDS011;4957;51.412;6.724;2023-08-06T10:37:37;0.00;;;0.00;;
9836;SDS011;4957;51.412;6.724;2023-08-06T10:40:03;0.00;;;0.00;;
9836;SDS011;4957;51.412;6.724;2023-08-06T10:42:31;0.00;;;0.00;;
9836;SDS011;4957;51.412;6.724;2023-08-06T10:45:13;0.00;;;0.00;;
9836;SDS011;4957;51.412;6.724;2023-08-06T10:47:40;0.00;;;0.00;;
9836;SDS011;4957;51.412;6.724;2023-08-06T10:50:14;0.00;;;0.00;;
9836;SDS011;4957;51.412;6.724;2023-08-06T10:52:42;0.00;;;0.00;;
9836;SDS011;4957;51.412;6.724;2023-08-06T10:55:11;0.00;;;0.00;;
9836;SDS011;4957;51.412;6.724;2023-08-06T10:57:37;0.00;;;0.00;;
9836;SDS011;4957;51.412;6.724;2023-08-06T11:00:04;0.00;;;0.00;;
9836;SDS011;4957;51.412;6.724;2023-08-06T11:02:34;0.00;;;0.00;;
9836;SDS011;4957;51.412;6.724;2023-08-06T11:05:05;0.00;;;0.00;;
9836;SDS011;4957;51.412;6.724;2023-08-06T11:07:31;0.00;;;0.00;;
9836;SDS011;4957;51.412;6.724;2023-08-06T11:10:01;0.00;;;0.00;;
9836;SDS011;4957;51.412;6.724;2023-08-06T11:12:31;0.00;;;0.00;;
9836;SDS011;4957;51.412;6.724;2023-08-06T11:14:57;0.00;;;0.00;;
9836;SDS011;4957;51.412;6.724;2023-08-06T11:17:23;0.00;;;0.00;;
9836;SDS011;4957;51.412;6.724;2023-08-06T11:19:48;0.00;;;0.00;;
9836;SDS011;4957;51.412;6.724;2023-08-06T11:22:15;0.00;;;0.00;;
9836;SDS011;4957;51.412;6.724;2023-08-06T11:24:41;0.00;;;0.00;;
9836;SDS011;4957;51.412;6.724;2023-08-06T11:27:13;0.00;;;0.00;;
9836;SDS011;4957;51.412;6.724;2023-08-06T11:29:43;0.00;;;0.00;;
9836;SDS011;4957;51.412;6.724;2023-08-06T11:32:09;0.00;;;0.00;;
9836;SDS011;4957;51.412;6.724;2023-08-06T11:34:36;0.00;;;0.00;;
9836;SDS011;4957;51.412;6.724;2023-08-06T11:37:02;0.00;;;0.00;;
9836;SDS011;4957;51.412;6.724;2023-08-06T11:39:33;0.00;;;0.00;;
9836;SDS011;4957;51.412;6.724;2023-08-06T11:41:59;0.00;;;0.00;;
9836;SDS011;4957;51.412;6.724;2023-08-06T11:44:29;0.00;;;0.00;;
9836;SDS011;4957;51.412;6.724;2023-08-06T11:47:11;0.00;;;0.00;;
9836;SDS011;4957;51.412;6.724;2023-08-06T11:54:44;0.00;;;0.00;;
9836;SDS011;4957;51.412;6.724;2023-08-06T11:57:13;0.00;;;0.00;;
9836;SDS011;4957;51.412;6.724;2023-08-06T11:59:40;0.00;;;0.00;;
9836;SDS011;4957;51.412;6.724;2023-08-06T12:02:07;0.00;;;0.00;;
9836;SDS011;4957;51.412;6.724;2023-08-06T12:07:27;0.00;;;0.00;;
9836;SDS011;4957;51.412;6.724;2023-08-06T12:09:55;0.00;;;0.00;;
9836;SDS011;4957;51.412;6.724;2023-08-06T12:12:20;0.00;;;0.00;;
9836;SDS011;4957;51.412;6.724;2023-08-06T12:14:46;0.00;;;0.00;;
9836;SDS011;4957;51.412;6.724;2023-08-06T12:17:12;0.00;;;0.00;;
9836;SDS011;4957;51.412;6.724;2023-08-06T12:19:37;0.00;;;0.00;;
9836;SDS011;4957;51.412;6.724;2023-08-06T12:22:03;0.00;;;0.00;;
9836;SDS011;4957;51.412;6.724;2023-08-06T12:24:29;0.00;;;0.00;;
9836;SDS011;4957;51.412;6.724;2023-08-06T12:26:57;0.00;;;0.00;;
9836;SDS011;4957;51.412;6.724;2023-08-06T12:29:23;0.00;;;0.00;;
9836;SDS011;4957;51.412;6.724;2023-08-06T12:31:49;0.00;;;0.00;;
9836;SDS011;4957;51.412;6.724;2023-08-06T12:34:15;0.00;;;0.00;;
9836;SDS011;4957;51.412;6.724;2023-08-06T12:36:41;0.00;;;0.00;;
9836;SDS011;4957;51.412;6.724;2023-08-06T12:39:06;0.00;;;0.00;;
9836;SDS011;4957;51.412;6.724;2023-08-06T12:41:32;0.00;;;0.00;;
9836;SDS011;4957;51.412;6.724;2023-08-06T12:43:58;0.00;;;0.00;;
9836;SDS011;4957;51.412;6.724;2023-08-06T12:46:23;0.00;;;0.00;;
9836;SDS011;4957;51.412;6.724;2023-08-06T12:48:49;0.00;;;0.00;;
9836;SDS011;4957;51.412;6.724;2023-08-06T12:51:15;0.00;;;0.00;;
9836;SDS011;4957;51.412;6.724;2023-08-06T12:53:41;0.00;;;0.00;;
9836;SDS011;4957;51.412;6.724;2023-08-06T12:56:07;0.00;;;0.00;;
9836;SDS011;4957;51.412;6.724;2023-08-06T12:58:32;0.00;;;0.00;;
9836;SDS011;4957;51.412;6.724;2023-08-06T13:00:58;0.00;;;0.00;;
9836;SDS011;4957;51.412;6.724;2023-08-06T13:03:24;0.03;;;0.03;;
9836;SDS011;4957;51.412;6.724;2023-08-06T13:05:49;0.00;;;0.00;;
9836;SDS011;4957;51.412;6.724;2023-08-06T13:08:17;0.00;;;0.00;;
9836;SDS011;4957;51.412;6.724;2023-08-06T13:10:43;0.00;;;0.00;;
9836;SDS011;4957;51.412;6.724;2023-08-06T13:13:08;0.00;;;0.00;;
9836;SDS011;4957;51.412;6.724;2023-08-06T13:15:35;0.00;;;0.00;;
9836;SDS011;4957;51.412;6.724;2023-08-06T13:18:01;0.00;;;0.00;;
9836;SDS011;4957;51.412;6.724;2023-08-06T13:20:27;0.00;;;0.00;;
9836;SDS011;4957;51.412;6.724;2023-08-06T13:22:55;0.00;;;0.00;;
9836;SDS011;4957;51.412;6.724;2023-08-06T13:25:20;0.00;;;0.00;;
9836;SDS011;4957;51.412;6.724;2023-08-06T13:27:46;0.00;;;0.00;;
9836;SDS011;4957;51.412;6.724;2023-08-06T13:30:12;3.17;;;2.00;;
9836;SDS011;4957;51.412;6.724;2023-08-06T13:32:38;4.00;;;2.30;;
9836;SDS011;4957;51.412;6.724;2023-08-06T13:35:04;3.00;;;1.93;;
9836;SDS011;4957;51.412;6.724;2023-08-06T13:37:30;3.07;;;2.23;;
9836;SDS011;4957;51.412;6.724;2023-08-06T13:39:56;2.70;;;1.90;;
9836;SDS011;4957;51.412;6.724;2023-08-06T13:42:22;3.37;;;2.13;;
9836;SDS011;4957;51.412;6.724;2023-08-06T13:44:47;3.67;;;2.30;;
9836;SDS011;4957;51.412;6.724;2023-08-06T13:47:13;3.63;;;2.40;;
9836;SDS011;4957;51.412;6.724;2023-08-06T13:49:39;2.37;;;1.97;;
9836;SDS011;4957;51.412;6.724;2023-08-06T13:52:04;2.47;;;2.27;;
9836;SDS011;4957;51.412;6.724;2023-08-06T13:54:30;2.53;;;2.17;;
9836;SDS011;4957;51.412;6.724;2023-08-06T13:56:56;2.17;;;1.97;;
9836;SDS011;4957;51.412;6.724;2023-08-06T13:59:21;2.77;;;2.20;;
9836;SDS011;4957;51.412;6.724;2023-08-06T14:01:49;1.60;;;1.50;;
9836;SDS011;4957;51.412;6.724;2023-08-06T14:04:15;6.13;;;2.30;;
9836;SDS011;4957;51.412;6.724;2023-08-06T14:06:41;1.93;;;1.80;;
9836;SDS011;4957;51.412;6.724;2023-08-06T14:09:07;2.30;;;1.87;;
9836;SDS011;4957;51.412;6.724;2023-08-06T14:11:33;2.00;;;1.57;;
9836;SDS011;4957;51.412;6.724;2023-08-06T14:13:58;3.70;;;1.90;;
9836;SDS011;4957;51.412;6.724;2023-08-06T14:16:25;3.53;;;2.13;;
9836;SDS011;4957;51.412;6.724;2023-08-06T14:18:50;3.80;;;1.80;;
9836;SDS011;4957;51.412;6.724;2023-08-06T14:21:16;1.83;;;1.67;;
9836;SDS011;4957;51.412;6.724;2023-08-06T14:23:42;1.73;;;1.63;;
9836;SDS011;4957;51.412;6.724;2023-08-06T14:26:07;4.03;;;1.90;;
9836;SDS011;4957;51.412;6.724;2023-08-06T14:28:35;2.80;;;1.50;;
9836;SDS011;4957;51.412;6.724;2023-08-06T14:31:01;2.70;;;1.87;;
9836;SDS011;4957;51.412;6.724;2023-08-06T14:33:27;1.97;;;1.70;;
9836;SDS011;4957;51.412;6.724;2023-08-06T14:35:52;2.33;;;1.70;;
9836;SDS011;4957;51.412;6.724;2023-08-06T14:38:18;1.60;;;1.50;;
9836;SDS011;4957;51.412;6.724;2023-08-06T14:40:44;2.10;;;1.60;;
9836;SDS011;4957;51.412;6.724;2023-08-06T14:43:10;1.47;;;1.37;;
9836;SDS011;4957;51.412;6.724;2023-08-06T14:45:39;2.00;;;1.57;;
9836;SDS011;4957;51.412;6.724;2023-08-06T14:48:05;2.77;;;2.27;;
9836;SDS011;4957;51.412;6.724;2023-08-06T14:50:31;2.47;;;1.83;;
9836;SDS011;4957;51.412;6.724;2023-08-06T14:52:57;2.23;;;1.97;;
9836;SDS011;4957;51.412;6.724;2023-08-06T14:55:26;4.83;;;2.00;;
9836;SDS011;4957;51.412;6.724;2023-08-06T14:57:52;3.97;;;2.07;;
9836;SDS011;4957;51.412;6.724;2023-08-06T15:00:18;3.00;;;2.20;;
9836;SDS011;4957;51.412;6.724;2023-08-06T15:02:45;3.67;;;2.63;;
9836;SDS011;4957;51.412;6.724;2023-08-06T15:05:11;3.07;;;1.70;;
9836;SDS011;4957;51.412;6.724;2023-08-06T15:07:36;2.17;;;1.23;;
9836;SDS011;4957;51.412;6.724;2023-08-06T15:10:03;3.40;;;1.70;;
9836;SDS011;4957;51.412;6.724;2023-08-06T15:12:33;1.73;;;1.50;;
9836;SDS011;4957;51.412;6.724;2023-08-06T15:14:59;2.77;;;1.60;;
9836;SDS011;4957;51.412;6.724;2023-08-06T15:17:26;2.37;;;1.57;;
9836;SDS011;4957;51.412;6.724;2023-08-06T15:19:55;2.87;;;1.60;;
9836;SDS011;4957;51.412;6.724;2023-08-06T15:22:22;2.17;;;1.70;;
9836;SDS011;4957;51.412;6.724;2023-08-06T15:24:48;1.97;;;1.33;;
9836;SDS011;4957;51.412;6.724;2023-08-06T15:27:13;1.53;;;1.30;;
9836;SDS011;4957;51.412;6.724;2023-08-06T15:29:39;2.33;;;1.90;;
9836;SDS011;4957;51.412;6.724;2023-08-06T15:32:05;1.73;;;1.63;;